Accueil
METAR-TAF:

METAR-TAF

Aéroports :

Wittering, Angleterre

latitude: 52-37N, longitude: 000-28W, altitude: 84 m

Observation

Le bulletin a été fait il y a 58 minutes, à 17:50 UTC
Vent 3 kt de ouest
Température 4°C
Humidité 100%
Pression 1020 hPa
Visibilité: 4400 m
brouillard

METAR: EGXT 261750Z AUTO 27003KT 4400 FG BKN043/// 04/04 Q1020

Heure: 18:48 (18:48 UTC)

Prévision

Le bulletin a été fait il y a 5 heures et 5 minutes, à 13:43 UTC
Prévision valable du 26 à 15 UTC au 26 à 18 UTC
Vent 5 kt de ouest/nord-ouest
Visibilité 10 km ou plus
Nuages épars à une hauteur de 4000 ft
Evoluant progressivement
du 26 à 15 UTC au 26 à 17 UTC
Visibilité: 6000 m
brume sèche
Probabilité 40%
du 26 à 17 UTC au 26 à 18 UTC
Visibilité: 4000 m
brume

TAF: EGXT 261343Z 2615/2618 29005KT 9999 SCT040 BECMG 2615/2617 6000 HZ PROB40 2617/2618 4000 BR

Observations et prévisions météorologiques de plus de 4000 aéroports (messages METAR et TAF).

Les stations disponibles sont représentées par des disques jaunes et rouges sur la carte.

Passer la souris dessus pour voir le nom de la station.

Cliquer dessus pour voir les observations et prévisions météorologiques.

Pour changer de carte: cliquez sur les boutons verts avec une croix noire pour zoomer, sur le bouton vert avec un tiret pour effectuer un zoom arrière, ou sur les flèches vertes pour les cartes adjacentes.


METAR-TAF: